CYDC

Details ICAO CYDC (YDC)
Name PRINCETON
Region Canada
Timezone America/Vancouver (UTC-8.0)
Plans Departing 1
Arriving 10
Stats Elevation 2,298 ft / 700 m (AMSL)
Location 49.467500° -120.511946°
Runways 1
Magnetic Variation 15.796° E
Sunrise 2017-12-12 15:50:45 UTC / 2017-12-12 07:50:45 Local
Sunset 2017-12-13 00:03:58 UTC / 2017-12-12 16:03:58 Local
Advertisement - Login to hide

Runways

ID Width Length Bearing (true) Bearing (mag) Surface Threshold Offset Overrun Length
03 75 ft / 23 m 3,927 ft / 1,197 m 49.92° 34.12° Asphalt 0 ft / 0 m 0 ft / 0 m
21 75 ft / 23 m 3,927 ft / 1,197 m 229.93° 214.13° Asphalt 0 ft / 0 m 0 ft / 0 m

Map

Weather


0- 5 10 15 20 25 30 35+ Temperature / ° C

Clouds and Precipitation
Forecast for 2017-12-13 00:00 UTC. Updated an hour ago

Ground ~20,000 ft ~40,000 ft Winds

METAR

CYDC 122200Z 00000KT 25SM FEW016 FEW160 SCT280 M02/M06 A3046 RMK ST1AC1CI3 AC TR SLP350

TAF

Not found

Frequencies

Unicom 123.20 MHz CTAF
Warning: Do not use this data for real-world aviation or navigation. No guarantee of current accuracy is given.